sensor_id;sensor_type;location;lat;lon;timestamp;P1;durP1;ratioP1;P2;durP2;ratioP2
12048;SDS011;6085;49.452;8.502;2022-10-31T00:00:30;17.48;;;12.20;;
12048;SDS011;6085;49.452;8.502;2022-10-31T00:04:32;21.92;;;13.43;;
12048;SDS011;6085;49.452;8.502;2022-10-31T00:08:35;16.75;;;11.65;;
12048;SDS011;6085;49.452;8.502;2022-10-31T00:12:37;15.52;;;12.45;;
12048;SDS011;6085;49.452;8.502;2022-10-31T00:16:39;21.83;;;15.10;;
12048;SDS011;6085;49.452;8.502;2022-10-31T00:20:41;21.30;;;14.35;;
12048;SDS011;6085;49.452;8.502;2022-10-31T00:24:44;21.02;;;14.38;;
12048;SDS011;6085;49.452;8.502;2022-10-31T00:28:46;20.48;;;14.82;;
12048;SDS011;6085;49.452;8.502;2022-10-31T00:32:48;20.67;;;15.60;;
12048;SDS011;6085;49.452;8.502;2022-10-31T00:36:50;24.73;;;16.13;;
12048;SDS011;6085;49.452;8.502;2022-10-31T00:40:54;25.02;;;16.42;;
12048;SDS011;6085;49.452;8.502;2022-10-31T00:44:56;22.50;;;15.63;;
12048;SDS011;6085;49.452;8.502;2022-10-31T00:48:57;17.52;;;13.82;;
12048;SDS011;6085;49.452;8.502;2022-10-31T00:52:59;21.98;;;15.77;;
12048;SDS011;6085;49.452;8.502;2022-10-31T00:57:02;19.90;;;14.45;;
12048;SDS011;6085;49.452;8.502;2022-10-31T01:01:04;22.30;;;14.60;;
12048;SDS011;6085;49.452;8.502;2022-10-31T01:05:06;20.98;;;14.70;;
12048;SDS011;6085;49.452;8.502;2022-10-31T01:09:09;21.88;;;13.77;;
12048;SDS011;6085;49.452;8.502;2022-10-31T01:13:12;19.88;;;14.45;;
12048;SDS011;6085;49.452;8.502;2022-10-31T01:17:13;19.02;;;13.38;;
12048;SDS011;6085;49.452;8.502;2022-10-31T01:21:16;22.90;;;15.32;;
12048;SDS011;6085;49.452;8.502;2022-10-31T01:25:19;19.75;;;14.43;;
12048;SDS011;6085;49.452;8.502;2022-10-31T01:29:22;22.75;;;14.68;;
12048;SDS011;6085;49.452;8.502;2022-10-31T01:33:24;18.83;;;13.73;;
12048;SDS011;6085;49.452;8.502;2022-10-31T01:37:26;23.52;;;15.35;;
12048;SDS011;6085;49.452;8.502;2022-10-31T01:41:28;21.52;;;14.50;;
12048;SDS011;6085;49.452;8.502;2022-10-31T01:45:33;21.80;;;14.60;;
12048;SDS011;6085;49.452;8.502;2022-10-31T01:49:35;22.50;;;14.45;;
12048;SDS011;6085;49.452;8.502;2022-10-31T01:53:39;20.92;;;14.50;;
12048;SDS011;6085;49.452;8.502;2022-10-31T01:57:44;20.98;;;14.45;;
12048;SDS011;6085;49.452;8.502;2022-10-31T02:01:50;18.95;;;13.90;;
12048;SDS011;6085;49.452;8.502;2022-10-31T02:05:53;21.40;;;13.95;;
12048;SDS011;6085;49.452;8.502;2022-10-31T02:09:56;19.48;;;13.40;;
12048;SDS011;6085;49.452;8.502;2022-10-31T02:13:59;18.88;;;12.70;;
12048;SDS011;6085;49.452;8.502;2022-10-31T02:18:04;16.67;;;12.18;;
12048;SDS011;6085;49.452;8.502;2022-10-31T02:22:09;16.42;;;11.30;;
12048;SDS011;6085;49.452;8.502;2022-10-31T02:26:26;17.75;;;11.85;;
12048;SDS011;6085;49.452;8.502;2022-10-31T02:30:51;14.73;;;10.43;;
12048;SDS011;6085;49.452;8.502;2022-10-31T02:35:02;12.65;;;10.27;;
12048;SDS011;6085;49.452;8.502;2022-10-31T02:39:11;12.18;;;9.85;;
12048;SDS011;6085;49.452;8.502;2022-10-31T02:43:20;12.02;;;8.90;;
12048;SDS011;6085;49.452;8.502;2022-10-31T02:47:29;13.70;;;8.85;;
12048;SDS011;6085;49.452;8.502;2022-10-31T02:51:35;10.50;;;8.32;;
12048;SDS011;6085;49.452;8.502;2022-10-31T02:55:50;11.48;;;8.65;;
12048;SDS011;6085;49.452;8.502;2022-10-31T02:59:58;12.38;;;8.98;;
12048;SDS011;6085;49.452;8.502;2022-10-31T03:04:07;10.55;;;7.82;;
12048;SDS011;6085;49.452;8.502;2022-10-31T03:08:34;8.80;;;7.05;;
12048;SDS011;6085;49.452;8.502;2022-10-31T03:12:43;11.05;;;7.15;;
12048;SDS011;6085;49.452;8.502;2022-10-31T03:16:55;9.30;;;6.70;;
12048;SDS011;6085;49.452;8.502;2022-10-31T03:21:05;11.05;;;7.15;;
12048;SDS011;6085;49.452;8.502;2022-10-31T03:25:09;12.80;;;8.15;;
12048;SDS011;6085;49.452;8.502;2022-10-31T03:29:13;10.27;;;7.40;;
12048;SDS011;6085;49.452;8.502;2022-10-31T03:33:17;8.30;;;6.45;;
12048;SDS011;6085;49.452;8.502;2022-10-31T03:37:25;9.95;;;7.03;;
12048;SDS011;6085;49.452;8.502;2022-10-31T03:41:31;8.90;;;6.35;;
12048;SDS011;6085;49.452;8.502;2022-10-31T03:45:39;10.00;;;7.00;;
12048;SDS011;6085;49.452;8.502;2022-10-31T03:49:45;9.73;;;6.93;;
12048;SDS011;6085;49.452;8.502;2022-10-31T03:53:50;9.63;;;6.57;;
12048;SDS011;6085;49.452;8.502;2022-10-31T03:57:57;8.93;;;6.75;;
12048;SDS011;6085;49.452;8.502;2022-10-31T04:02:02;9.57;;;7.75;;
12048;SDS011;6085;49.452;8.502;2022-10-31T04:06:09;12.05;;;7.47;;
12048;SDS011;6085;49.452;8.502;2022-10-31T04:10:16;11.55;;;7.68;;
12048;SDS011;6085;49.452;8.502;2022-10-31T04:14:19;7.90;;;6.50;;
12048;SDS011;6085;49.452;8.502;2022-10-31T04:18:23;9.00;;;6.80;;
12048;SDS011;6085;49.452;8.502;2022-10-31T04:22:25;8.30;;;6.88;;
12048;SDS011;6085;49.452;8.502;2022-10-31T04:26:28;10.70;;;6.80;;
12048;SDS011;6085;49.452;8.502;2022-10-31T04:30:30;10.15;;;7.07;;
12048;SDS011;6085;49.452;8.502;2022-10-31T04:34:32;10.35;;;7.28;;
12048;SDS011;6085;49.452;8.502;2022-10-31T04:38:33;11.73;;;6.95;;
12048;SDS011;6085;49.452;8.502;2022-10-31T04:42:37;10.75;;;7.22;;
12048;SDS011;6085;49.452;8.502;2022-10-31T04:46:38;10.25;;;6.97;;
12048;SDS011;6085;49.452;8.502;2022-10-31T04:50:40;9.52;;;7.75;;
12048;SDS011;6085;49.452;8.502;2022-10-31T04:54:42;14.75;;;9.00;;
12048;SDS011;6085;49.452;8.502;2022-10-31T04:58:45;10.13;;;8.68;;
12048;SDS011;6085;49.452;8.502;2022-10-31T05:02:47;14.43;;;9.38;;
12048;SDS011;6085;49.452;8.502;2022-10-31T05:06:50;19.48;;;10.05;;
12048;SDS011;6085;49.452;8.502;2022-10-31T05:10:52;15.63;;;10.60;;
12048;SDS011;6085;49.452;8.502;2022-10-31T05:14:56;13.70;;;9.65;;
12048;SDS011;6085;49.452;8.502;2022-10-31T05:18:57;28.13;;;12.00;;
12048;SDS011;6085;49.452;8.502;2022-10-31T05:23:00;18.63;;;11.43;;
12048;SDS011;6085;49.452;8.502;2022-10-31T05:27:01;17.38;;;10.65;;
12048;SDS011;6085;49.452;8.502;2022-10-31T05:31:05;17.17;;;10.82;;
12048;SDS011;6085;49.452;8.502;2022-10-31T05:35:07;15.43;;;10.88;;
12048;SDS011;6085;49.452;8.502;2022-10-31T05:39:10;12.27;;;9.80;;
12048;SDS011;6085;49.452;8.502;2022-10-31T05:43:12;14.60;;;9.95;;
12048;SDS011;6085;49.452;8.502;2022-10-31T05:47:15;18.00;;;10.85;;
12048;SDS011;6085;49.452;8.502;2022-10-31T05:51:17;19.58;;;11.57;;
12048;SDS011;6085;49.452;8.502;2022-10-31T05:55:19;16.35;;;10.88;;
12048;SDS011;6085;49.452;8.502;2022-10-31T05:59:21;12.40;;;8.73;;
12048;SDS011;6085;49.452;8.502;2022-10-31T06:03:24;12.90;;;10.27;;
12048;SDS011;6085;49.452;8.502;2022-10-31T06:07:26;15.10;;;10.80;;
12048;SDS011;6085;49.452;8.502;2022-10-31T06:11:28;11.77;;;10.25;;
12048;SDS011;6085;49.452;8.502;2022-10-31T06:15:29;16.70;;;10.38;;
12048;SDS011;6085;49.452;8.502;2022-10-31T06:19:33;13.65;;;10.27;;
12048;SDS011;6085;49.452;8.502;2022-10-31T06:23:34;18.20;;;11.00;;
12048;SDS011;6085;49.452;8.502;2022-10-31T06:27:36;15.38;;;10.98;;
12048;SDS011;6085;49.452;8.502;2022-10-31T06:31:38;15.13;;;11.43;;
12048;SDS011;6085;49.452;8.502;2022-10-31T06:35:45;20.33;;;12.93;;
12048;SDS011;6085;49.452;8.502;2022-10-31T06:39:47;18.17;;;12.13;;
12048;SDS011;6085;49.452;8.502;2022-10-31T06:43:49;17.83;;;11.07;;
12048;SDS011;6085;49.452;8.502;2022-10-31T06:47:51;19.75;;;12.38;;
12048;SDS011;6085;49.452;8.502;2022-10-31T06:51:54;13.40;;;10.77;;
12048;SDS011;6085;49.452;8.502;2022-10-31T06:55:56;13.45;;;10.15;;
12048;SDS011;6085;49.452;8.502;2022-10-31T06:59:58;15.40;;;10.95;;
12048;SDS011;6085;49.452;8.502;2022-10-31T07:04:00;14.20;;;9.93;;
12048;SDS011;6085;49.452;8.502;2022-10-31T07:08:04;12.65;;;9.60;;
12048;SDS011;6085;49.452;8.502;2022-10-31T07:12:08;14.57;;;9.57;;
12048;SDS011;6085;49.452;8.502;2022-10-31T07:16:10;12.75;;;9.07;;
12048;SDS011;6085;49.452;8.502;2022-10-31T07:20:13;10.18;;;8.50;;
12048;SDS011;6085;49.452;8.502;2022-10-31T07:24:16;11.52;;;9.25;;
12048;SDS011;6085;49.452;8.502;2022-10-31T07:28:18;11.32;;;8.70;;
12048;SDS011;6085;49.452;8.502;2022-10-31T07:32:20;9.95;;;8.32;;
12048;SDS011;6085;49.452;8.502;2022-10-31T07:36:22;10.43;;;8.63;;
12048;SDS011;6085;49.452;8.502;2022-10-31T07:40:25;10.68;;;9.23;;
12048;SDS011;6085;49.452;8.502;2022-10-31T07:44:27;9.95;;;8.32;;
12048;SDS011;6085;49.452;8.502;2022-10-31T07:48:29;8.82;;;7.78;;
12048;SDS011;6085;49.452;8.502;2022-10-31T07:52:30;14.10;;;8.70;;
12048;SDS011;6085;49.452;8.502;2022-10-31T07:56:33;10.60;;;8.15;;
12048;SDS011;6085;49.452;8.502;2022-10-31T08:00:36;8.63;;;7.20;;
12048;SDS011;6085;49.452;8.502;2022-10-31T08:04:40;12.40;;;7.80;;
12048;SDS011;6085;49.452;8.502;2022-10-31T08:08:41;9.75;;;7.32;;
12048;SDS011;6085;49.452;8.502;2022-10-31T08:12:45;8.15;;;6.65;;
12048;SDS011;6085;49.452;8.502;2022-10-31T08:16:47;7.60;;;6.72;;
12048;SDS011;6085;49.452;8.502;2022-10-31T08:20:49;8.57;;;6.75;;
12048;SDS011;6085;49.452;8.502;2022-10-31T08:24:51;7.60;;;5.70;;
12048;SDS011;6085;49.452;8.502;2022-10-31T08:28:54;6.15;;;5.10;;
12048;SDS011;6085;49.452;8.502;2022-10-31T08:32:57;7.30;;;5.57;;
12048;SDS011;6085;49.452;8.502;2022-10-31T08:37:00;7.50;;;5.45;;
12048;SDS011;6085;49.452;8.502;2022-10-31T08:41:01;6.07;;;5.32;;
12048;SDS011;6085;49.452;8.502;2022-10-31T08:45:05;7.72;;;5.07;;
12048;SDS011;6085;49.452;8.502;2022-10-31T08:49:07;5.38;;;4.43;;
12048;SDS011;6085;49.452;8.502;2022-10-31T08:53:11;7.32;;;5.22;;
12048;SDS011;6085;49.452;8.502;2022-10-31T08:57:14;5.30;;;4.47;;
12048;SDS011;6085;49.452;8.502;2022-10-31T09:01:17;5.85;;;4.70;;
12048;SDS011;6085;49.452;8.502;2022-10-31T09:05:19;10.35;;;5.40;;
12048;SDS011;6085;49.452;8.502;2022-10-31T09:09:21;9.45;;;6.15;;
12048;SDS011;6085;49.452;8.502;2022-10-31T09:13:23;7.80;;;6.38;;
12048;SDS011;6085;49.452;8.502;2022-10-31T09:17:26;9.23;;;6.72;;
12048;SDS011;6085;49.452;8.502;2022-10-31T09:21:29;12.32;;;6.95;;
12048;SDS011;6085;49.452;8.502;2022-10-31T09:25:31;10.75;;;7.80;;
12048;SDS011;6085;49.452;8.502;2022-10-31T09:29:34;8.93;;;7.60;;
12048;SDS011;6085;49.452;8.502;2022-10-31T09:33:37;9.70;;;7.50;;
12048;SDS011;6085;49.452;8.502;2022-10-31T09:37:39;12.07;;;8.32;;
12048;SDS011;6085;49.452;8.502;2022-10-31T09:41:46;11.98;;;8.75;;
12048;SDS011;6085;49.452;8.502;2022-10-31T09:46:04;11.65;;;9.23;;
12048;SDS011;6085;49.452;8.502;2022-10-31T09:50:15;11.07;;;8.68;;
12048;SDS011;6085;49.452;8.502;2022-10-31T09:54:25;12.77;;;7.75;;
12048;SDS011;6085;49.452;8.502;2022-10-31T09:58:30;15.43;;;9.13;;
12048;SDS011;6085;49.452;8.502;2022-10-31T10:02:35;13.40;;;9.75;;
12048;SDS011;6085;49.452;8.502;2022-10-31T10:06:42;12.88;;;9.45;;
12048;SDS011;6085;49.452;8.502;2022-10-31T10:10:48;12.98;;;8.73;;
12048;SDS011;6085;49.452;8.502;2022-10-31T10:14:56;16.85;;;9.18;;
12048;SDS011;6085;49.452;8.502;2022-10-31T10:19:13;11.45;;;8.75;;
12048;SDS011;6085;49.452;8.502;2022-10-31T10:23:32;14.00;;;9.23;;
12048;SDS011;6085;49.452;8.502;2022-10-31T10:27:41;15.52;;;9.25;;
12048;SDS011;6085;49.452;8.502;2022-10-31T10:31:51;11.05;;;8.23;;
12048;SDS011;6085;49.452;8.502;2022-10-31T10:35:56;11.20;;;8.13;;
12048;SDS011;6085;49.452;8.502;2022-10-31T10:40:05;11.25;;;8.02;;
12048;SDS011;6085;49.452;8.502;2022-10-31T10:44:13;11.57;;;8.00;;
12048;SDS011;6085;49.452;8.502;2022-10-31T10:48:16;11.30;;;7.47;;
12048;SDS011;6085;49.452;8.502;2022-10-31T10:52:28;9.55;;;7.80;;
12048;SDS011;6085;49.452;8.502;2022-10-31T10:56:39;11.43;;;7.70;;
12048;SDS011;6085;49.452;8.502;2022-10-31T11:00:46;9.80;;;8.82;;
12048;SDS011;6085;49.452;8.502;2022-10-31T11:04:49;8.57;;;7.45;;
12048;SDS011;6085;49.452;8.502;2022-10-31T11:08:53;9.82;;;7.75;;
12048;SDS011;6085;49.452;8.502;2022-10-31T11:13:02;10.10;;;7.70;;
12048;SDS011;6085;49.452;8.502;2022-10-31T11:17:07;13.32;;;8.43;;
12048;SDS011;6085;49.452;8.502;2022-10-31T11:21:19;9.82;;;8.00;;
12048;SDS011;6085;49.452;8.502;2022-10-31T11:25:23;7.75;;;6.85;;
12048;SDS011;6085;49.452;8.502;2022-10-31T11:29:28;10.82;;;7.40;;
12048;SDS011;6085;49.452;8.502;2022-10-31T11:33:30;8.15;;;6.63;;
12048;SDS011;6085;49.452;8.502;2022-10-31T11:37:35;12.05;;;7.43;;
12048;SDS011;6085;49.452;8.502;2022-10-31T11:41:43;11.20;;;9.65;;
12048;SDS011;6085;49.452;8.502;2022-10-31T11:45:47;10.15;;;8.82;;
12048;SDS011;6085;49.452;8.502;2022-10-31T11:49:50;13.57;;;10.15;;
12048;SDS011;6085;49.452;8.502;2022-10-31T11:53:52;12.75;;;9.70;;
12048;SDS011;6085;49.452;8.502;2022-10-31T11:57:56;13.02;;;10.02;;
12048;SDS011;6085;49.452;8.502;2022-10-31T12:02:00;12.15;;;8.90;;
12048;SDS011;6085;49.452;8.502;2022-10-31T12:06:03;10.05;;;8.65;;
12048;SDS011;6085;49.452;8.502;2022-10-31T12:10:10;11.50;;;7.70;;
12048;SDS011;6085;49.452;8.502;2022-10-31T12:14:16;13.40;;;10.00;;
12048;SDS011;6085;49.452;8.502;2022-10-31T12:18:31;12.80;;;9.48;;
12048;SDS011;6085;49.452;8.502;2022-10-31T12:22:59;10.32;;;8.93;;
12048;SDS011;6085;49.452;8.502;2022-10-31T12:27:10;14.93;;;11.30;;
12048;SDS011;6085;49.452;8.502;2022-10-31T12:31:26;10.55;;;8.52;;
12048;SDS011;6085;49.452;8.502;2022-10-31T12:35:46;12.27;;;8.48;;
12048;SDS011;6085;49.452;8.502;2022-10-31T12:39:54;9.23;;;8.02;;
12048;SDS011;6085;49.452;8.502;2022-10-31T12:44:12;13.60;;;11.25;;
12048;SDS011;6085;49.452;8.502;2022-10-31T12:48:37;18.52;;;13.70;;
12048;SDS011;6085;49.452;8.502;2022-10-31T12:52:56;19.17;;;12.60;;
12048;SDS011;6085;49.452;8.502;2022-10-31T12:57:10;13.07;;;9.85;;
12048;SDS011;6085;49.452;8.502;2022-10-31T13:01:20;13.80;;;10.15;;
12048;SDS011;6085;49.452;8.502;2022-10-31T13:05:27;11.27;;;8.38;;
12048;SDS011;6085;49.452;8.502;2022-10-31T13:09:35;12.07;;;10.02;;
12048;SDS011;6085;49.452;8.502;2022-10-31T13:13:41;11.93;;;9.48;;
12048;SDS011;6085;49.452;8.502;2022-10-31T13:17:46;14.43;;;11.57;;
12048;SDS011;6085;49.452;8.502;2022-10-31T13:21:53;15.30;;;10.45;;
12048;SDS011;6085;49.452;8.502;2022-10-31T13:26:01;13.65;;;9.80;;
12048;SDS011;6085;49.452;8.502;2022-10-31T13:30:12;15.35;;;10.70;;
12048;SDS011;6085;49.452;8.502;2022-10-31T13:34:18;11.68;;;8.10;;
12048;SDS011;6085;49.452;8.502;2022-10-31T13:38:27;9.55;;;8.02;;
12048;SDS011;6085;49.452;8.502;2022-10-31T13:42:41;8.90;;;6.70;;
12048;SDS011;6085;49.452;8.502;2022-10-31T13:46:51;11.05;;;8.18;;
12048;SDS011;6085;49.452;8.502;2022-10-31T13:50:57;10.32;;;7.78;;
12048;SDS011;6085;49.452;8.502;2022-10-31T13:55:01;16.08;;;9.80;;
12048;SDS011;6085;49.452;8.502;2022-10-31T13:59:16;12.73;;;9.88;;
12048;SDS011;6085;49.452;8.502;2022-10-31T14:03:21;14.45;;;10.13;;
12048;SDS011;6085;49.452;8.502;2022-10-31T14:07:23;18.55;;;11.25;;
12048;SDS011;6085;49.452;8.502;2022-10-31T14:11:26;14.93;;;10.38;;
12048;SDS011;6085;49.452;8.502;2022-10-31T14:15:31;14.95;;;11.10;;
12048;SDS011;6085;49.452;8.502;2022-10-31T14:19:33;15.00;;;11.65;;
12048;SDS011;6085;49.452;8.502;2022-10-31T14:23:36;14.27;;;10.68;;
12048;SDS011;6085;49.452;8.502;2022-10-31T14:27:45;13.38;;;10.43;;
12048;SDS011;6085;49.452;8.502;2022-10-31T14:31:53;13.00;;;9.23;;
12048;SDS011;6085;49.452;8.502;2022-10-31T14:36:08;16.67;;;10.38;;
12048;SDS011;6085;49.452;8.502;2022-10-31T14:40:22;11.80;;;9.02;;
12048;SDS011;6085;49.452;8.502;2022-10-31T14:49:07;12.48;;;8.00;;
12048;SDS011;6085;49.452;8.502;2022-10-31T14:53:20;9.85;;;7.80;;
12048;SDS011;6085;49.452;8.502;2022-10-31T14:57:26;14.00;;;9.52;;
12048;SDS011;6085;49.452;8.502;2022-10-31T15:01:31;16.98;;;12.13;;
12048;SDS011;6085;49.452;8.502;2022-10-31T15:05:41;14.07;;;11.05;;
12048;SDS011;6085;49.452;8.502;2022-10-31T15:09:54;13.88;;;10.10;;
12048;SDS011;6085;49.452;8.502;2022-10-31T15:13:58;11.23;;;8.40;;
12048;SDS011;6085;49.452;8.502;2022-10-31T15:18:00;13.57;;;9.30;;
12048;SDS011;6085;49.452;8.502;2022-10-31T15:22:08;15.20;;;10.15;;
12048;SDS011;6085;49.452;8.502;2022-10-31T15:26:15;14.73;;;10.27;;
12048;SDS011;6085;49.452;8.502;2022-10-31T15:30:21;14.85;;;9.93;;
12048;SDS011;6085;49.452;8.502;2022-10-31T15:34:26;13.70;;;10.50;;
12048;SDS011;6085;49.452;8.502;2022-10-31T15:38:32;14.85;;;9.95;;
12048;SDS011;6085;49.452;8.502;2022-10-31T15:42:35;10.32;;;8.20;;
12048;SDS011;6085;49.452;8.502;2022-10-31T15:46:41;15.32;;;10.32;;
12048;SDS011;6085;49.452;8.502;2022-10-31T15:50:45;14.88;;;10.43;;
12048;SDS011;6085;49.452;8.502;2022-10-31T15:54:51;14.82;;;10.57;;
12048;SDS011;6085;49.452;8.502;2022-10-31T15:58:57;14.95;;;9.82;;
12048;SDS011;6085;49.452;8.502;2022-10-31T16:03:03;16.98;;;12.13;;
12048;SDS011;6085;49.452;8.502;2022-10-31T16:07:12;19.17;;;13.02;;
12048;SDS011;6085;49.452;8.502;2022-10-31T16:11:17;15.10;;;10.93;;
12048;SDS011;6085;49.452;8.502;2022-10-31T16:15:24;18.73;;;11.95;;
12048;SDS011;6085;49.452;8.502;2022-10-31T16:19:27;13.55;;;9.68;;
12048;SDS011;6085;49.452;8.502;2022-10-31T16:23:32;11.93;;;9.45;;
12048;SDS011;6085;49.452;8.502;2022-10-31T16:27:36;12.65;;;8.90;;
12048;SDS011;6085;49.452;8.502;2022-10-31T16:31:39;14.15;;;9.80;;
12048;SDS011;6085;49.452;8.502;2022-10-31T16:35:41;16.15;;;9.82;;
12048;SDS011;6085;49.452;8.502;2022-10-31T16:39:43;15.07;;;10.00;;
12048;SDS011;6085;49.452;8.502;2022-10-31T16:43:46;12.63;;;10.60;;
12048;SDS011;6085;49.452;8.502;2022-10-31T16:47:48;13.85;;;10.57;;
12048;SDS011;6085;49.452;8.502;2022-10-31T16:51:51;13.52;;;9.95;;
12048;SDS011;6085;49.452;8.502;2022-10-31T16:55:54;15.02;;;10.65;;
12048;SDS011;6085;49.452;8.502;2022-10-31T16:59:59;17.80;;;10.00;;
12048;SDS011;6085;49.452;8.502;2022-10-31T17:04:00;14.75;;;10.98;;
12048;SDS011;6085;49.452;8.502;2022-10-31T17:08:03;12.38;;;8.70;;
12048;SDS011;6085;49.452;8.502;2022-10-31T17:12:05;38.85;;;31.38;;
12048;SDS011;6085;49.452;8.502;2022-10-31T17:16:15;14.40;;;12.15;;
12048;SDS011;6085;49.452;8.502;2022-10-31T17:20:18;10.85;;;9.02;;
12048;SDS011;6085;49.452;8.502;2022-10-31T17:24:21;11.68;;;8.32;;
12048;SDS011;6085;49.452;8.502;2022-10-31T17:28:23;11.40;;;9.27;;
12048;SDS011;6085;49.452;8.502;2022-10-31T17:32:27;13.63;;;9.45;;
12048;SDS011;6085;49.452;8.502;2022-10-31T17:36:28;18.52;;;13.25;;
12048;SDS011;6085;49.452;8.502;2022-10-31T17:40:30;19.60;;;12.93;;
12048;SDS011;6085;49.452;8.502;2022-10-31T17:44:32;16.08;;;11.63;;
12048;SDS011;6085;49.452;8.502;2022-10-31T17:48:36;15.68;;;11.30;;
12048;SDS011;6085;49.452;8.502;2022-10-31T17:52:37;16.85;;;12.40;;
12048;SDS011;6085;49.452;8.502;2022-10-31T17:56:39;19.80;;;12.35;;
12048;SDS011;6085;49.452;8.502;2022-10-31T18:00:41;19.55;;;14.27;;
12048;SDS011;6085;49.452;8.502;2022-10-31T18:04:44;21.08;;;15.18;;
12048;SDS011;6085;49.452;8.502;2022-10-31T18:08:46;24.00;;;14.88;;
12048;SDS011;6085;49.452;8.502;2022-10-31T18:12:48;22.23;;;14.77;;
12048;SDS011;6085;49.452;8.502;2022-10-31T18:16:50;23.30;;;15.95;;
12048;SDS011;6085;49.452;8.502;2022-10-31T18:20:56;25.35;;;15.63;;
12048;SDS011;6085;49.452;8.502;2022-10-31T18:24:58;20.48;;;14.63;;
12048;SDS011;6085;49.452;8.502;2022-10-31T18:29:00;24.23;;;15.30;;
12048;SDS011;6085;49.452;8.502;2022-10-31T18:33:04;23.25;;;15.60;;
12048;SDS011;6085;49.452;8.502;2022-10-31T18:37:08;21.38;;;14.95;;
12048;SDS011;6085;49.452;8.502;2022-10-31T18:41:10;20.38;;;13.73;;
12048;SDS011;6085;49.452;8.502;2022-10-31T18:45:13;18.52;;;12.05;;
12048;SDS011;6085;49.452;8.502;2022-10-31T18:49:15;19.25;;;13.18;;
12048;SDS011;6085;49.452;8.502;2022-10-31T18:53:23;19.58;;;13.93;;
12048;SDS011;6085;49.452;8.502;2022-10-31T18:57:25;16.10;;;12.77;;
12048;SDS011;6085;49.452;8.502;2022-10-31T19:01:27;25.15;;;16.45;;
12048;SDS011;6085;49.452;8.502;2022-10-31T19:05:29;20.50;;;13.07;;
12048;SDS011;6085;49.452;8.502;2022-10-31T19:09:33;19.42;;;12.75;;
12048;SDS011;6085;49.452;8.502;2022-10-31T19:13:35;18.52;;;13.07;;
12048;SDS011;6085;49.452;8.502;2022-10-31T19:17:38;18.10;;;13.20;;
12048;SDS011;6085;49.452;8.502;2022-10-31T19:21:40;18.70;;;11.77;;
12048;SDS011;6085;49.452;8.502;2022-10-31T19:25:43;16.65;;;12.50;;
12048;SDS011;6085;49.452;8.502;2022-10-31T19:29:45;21.23;;;14.70;;
12048;SDS011;6085;49.452;8.502;2022-10-31T19:33:46;23.05;;;14.90;;
12048;SDS011;6085;49.452;8.502;2022-10-31T19:37:48;22.80;;;14.07;;
12048;SDS011;6085;49.452;8.502;2022-10-31T19:41:51;18.75;;;14.30;;
12048;SDS011;6085;49.452;8.502;2022-10-31T19:45:54;16.42;;;12.88;;
12048;SDS011;6085;49.452;8.502;2022-10-31T19:49:57;17.67;;;13.82;;
12048;SDS011;6085;49.452;8.502;2022-10-31T19:53:59;22.17;;;15.95;;
12048;SDS011;6085;49.452;8.502;2022-10-31T19:58:02;23.73;;;14.32;;
12048;SDS011;6085;49.452;8.502;2022-10-31T20:02:03;21.98;;;16.45;;
12048;SDS011;6085;49.452;8.502;2022-10-31T20:06:06;22.70;;;17.38;;
12048;SDS011;6085;49.452;8.502;2022-10-31T20:10:14;23.75;;;16.95;;
12048;SDS011;6085;49.452;8.502;2022-10-31T20:14:17;26.92;;;19.70;;
12048;SDS011;6085;49.452;8.502;2022-10-31T20:18:19;25.05;;;18.73;;
12048;SDS011;6085;49.452;8.502;2022-10-31T20:22:21;25.80;;;21.20;;
12048;SDS011;6085;49.452;8.502;2022-10-31T20:26:23;24.58;;;18.73;;
12048;SDS011;6085;49.452;8.502;2022-10-31T20:30:26;25.73;;;16.60;;
12048;SDS011;6085;49.452;8.502;2022-10-31T20:34:28;21.45;;;15.80;;
12048;SDS011;6085;49.452;8.502;2022-10-31T20:38:30;21.40;;;15.40;;
12048;SDS011;6085;49.452;8.502;2022-10-31T20:42:32;26.15;;;17.40;;
12048;SDS011;6085;49.452;8.502;2022-10-31T20:46:35;22.70;;;18.15;;
12048;SDS011;6085;49.452;8.502;2022-10-31T20:50:37;23.98;;;18.50;;
12048;SDS011;6085;49.452;8.502;2022-10-31T20:54:39;26.17;;;18.52;;
12048;SDS011;6085;49.452;8.502;2022-10-31T20:58:41;25.98;;;19.38;;
12048;SDS011;6085;49.452;8.502;2022-10-31T21:02:46;31.33;;;21.02;;
12048;SDS011;6085;49.452;8.502;2022-10-31T21:06:48;29.67;;;20.13;;
12048;SDS011;6085;49.452;8.502;2022-10-31T21:10:50;31.73;;;20.67;;
12048;SDS011;6085;49.452;8.502;2022-10-31T21:14:52;27.45;;;18.27;;
12048;SDS011;6085;49.452;8.502;2022-10-31T21:18:55;30.67;;;20.80;;
12048;SDS011;6085;49.452;8.502;2022-10-31T21:22:59;25.17;;;18.75;;
12048;SDS011;6085;49.452;8.502;2022-10-31T21:27:01;30.83;;;19.60;;
12048;SDS011;6085;49.452;8.502;2022-10-31T21:31:04;29.45;;;19.63;;
12048;SDS011;6085;49.452;8.502;2022-10-31T21:35:09;27.60;;;18.17;;
12048;SDS011;6085;49.452;8.502;2022-10-31T21:39:11;26.23;;;17.13;;
12048;SDS011;6085;49.452;8.502;2022-10-31T21:43:13;26.60;;;17.10;;
12048;SDS011;6085;49.452;8.502;2022-10-31T21:47:15;27.00;;;17.75;;
12048;SDS011;6085;49.452;8.502;2022-10-31T21:51:19;22.85;;;17.10;;
12048;SDS011;6085;49.452;8.502;2022-10-31T21:55:22;32.80;;;20.15;;
12048;SDS011;6085;49.452;8.502;2022-10-31T21:59:24;27.85;;;19.13;;
12048;SDS011;6085;49.452;8.502;2022-10-31T22:03:26;27.10;;;17.65;;
12048;SDS011;6085;49.452;8.502;2022-10-31T22:07:30;19.70;;;15.15;;
12048;SDS011;6085;49.452;8.502;2022-10-31T22:11:32;22.58;;;14.50;;
12048;SDS011;6085;49.452;8.502;2022-10-31T22:15:34;22.02;;;16.23;;
12048;SDS011;6085;49.452;8.502;2022-10-31T22:19:36;22.17;;;15.68;;
12048;SDS011;6085;49.452;8.502;2022-10-31T22:23:39;21.13;;;15.13;;
12048;SDS011;6085;49.452;8.502;2022-10-31T22:27:41;23.65;;;15.10;;
12048;SDS011;6085;49.452;8.502;2022-10-31T22:31:44;19.83;;;13.80;;
12048;SDS011;6085;49.452;8.502;2022-10-31T22:35:47;18.85;;;13.35;;
12048;SDS011;6085;49.452;8.502;2022-10-31T22:39:50;20.40;;;13.95;;
12048;SDS011;6085;49.452;8.502;2022-10-31T22:43:52;19.48;;;13.93;;
12048;SDS011;6085;49.452;8.502;2022-10-31T22:47:55;16.52;;;12.65;;
12048;SDS011;6085;49.452;8.502;2022-10-31T22:51:57;22.13;;;14.20;;
12048;SDS011;6085;49.452;8.502;2022-10-31T22:56:04;18.05;;;11.98;;
12048;SDS011;6085;49.452;8.502;2022-10-31T23:00:08;18.08;;;12.43;;
12048;SDS011;6085;49.452;8.502;2022-10-31T23:04:10;18.67;;;13.23;;
12048;SDS011;6085;49.452;8.502;2022-10-31T23:08:13;18.15;;;13.43;;
12048;SDS011;6085;49.452;8.502;2022-10-31T23:12:16;19.65;;;12.32;;
12048;SDS011;6085;49.452;8.502;2022-10-31T23:16:36;16.77;;;11.68;;
12048;SDS011;6085;49.452;8.502;2022-10-31T23:20:42;15.30;;;11.57;;
12048;SDS011;6085;49.452;8.502;2022-10-31T23:24:44;15.85;;;12.48;;
12048;SDS011;6085;49.452;8.502;2022-10-31T23:28:48;18.45;;;12.32;;
12048;SDS011;6085;49.452;8.502;2022-10-31T23:32:51;16.60;;;11.63;;
12048;SDS011;6085;49.452;8.502;2022-10-31T23:36:53;18.65;;;12.15;;
12048;SDS011;6085;49.452;8.502;2022-10-31T23:40:55;18.35;;;12.20;;
12048;SDS011;6085;49.452;8.502;2022-10-31T23:44:58;17.13;;;12.32;;
12048;SDS011;6085;49.452;8.502;2022-10-31T23:49:00;16.52;;;11.88;;
12048;SDS011;6085;49.452;8.502;2022-10-31T23:53:02;16.80;;;12.00;;
12048;SDS011;6085;49.452;8.502;2022-10-31T23:57:04;13.15;;;11.35;;
